Time;durP1;ratioP1;P1;durP2;ratioP2;P2;SDS_P1;SDS_P2;PMS_P1;PMS_P2;Temp;Humidity;BMP_temperature;BMP_pressure;BME280_temperature;BME280_humidity;BME280_pressure;Samples;Min_cycle;Max_cycle;Signal;HPM_P1;HPM_P2
2023/04/02 00:02:19;;;;;;;;;;;;;;;20.27;42.69;101168.50;4953250;28;19965;-85
2023/04/02 00:04:50;;;;;;;;;;;;;;;20.25;42.29;101181.31;4963135;28;20605;-84
2023/04/02 00:07:29;;;;;;;;;;;;;;;20.23;42.35;101185.03;4972113;28;19914;-84
2023/04/02 00:09:54;;;;;;;;;;;;;;;20.23;42.38;101184.19;4969197;28;19911;-85
2023/04/02 00:12:19;;;;;;;;;;;;;;;20.21;42.46;101192.44;4955712;28;19922;-85
2023/04/02 00:14:45;;;;;;;;;;;;;;;20.20;42.57;101193.47;4969693;28;20373;-84
2023/04/02 00:17:11;;;;;;;;;;;;;;;20.18;42.50;101200.91;4952858;28;19915;-84
2023/04/02 00:19:37;;;;;;;;;;;;;;;20.17;42.42;101203.75;4951645;28;19935;-84
2023/04/02 00:22:04;;;;;;;;;;;;;;;20.15;42.47;101206.63;4968993;28;19924;-83
2023/04/02 00:24:29;;;;;;;;;;;;;;;20.14;42.81;101210.38;4962569;28;20024;-84
2023/04/02 00:26:55;;;;;;;;;;;;;;;20.12;42.73;101209.66;4966529;28;20371;-83
2023/04/02 00:29:20;;;;;;;;;;;;;;;20.11;42.74;101217.94;4968924;28;19911;-84
2023/04/02 00:31:46;;;;;;;;;;;;;;;20.08;42.54;101215.56;4963976;28;19921;-83
2023/04/02 00:34:22;;;;;;;;;;;;;;;20.08;42.57;101223.69;4959029;28;19911;-84
2023/04/02 00:36:47;;;;;;;;;;;;;;;20.07;42.34;101230.94;4968184;28;19918;-85
2023/04/02 00:39:16;;;;;;;;;;;;;;;20.07;42.70;101232.78;4958857;28;19922;-85
2023/04/02 00:41:45;;;;;;;;;;;;;;;20.05;42.51;101237.50;4965682;28;19922;-85
2023/04/02 00:44:15;;;;;;;;;;;;;;;20.03;42.56;101247.63;4976113;28;19918;-85
2023/04/02 00:46:48;;;;;;;;;;;;;;;20.01;42.38;101245.13;4946017;28;19915;-85
2023/04/02 00:49:25;;;;;;;;;;;;;;;20.01;42.44;101252.34;4975834;28;19911;-83
2023/04/02 00:51:52;;;;;;;;;;;;;;;19.59;42.60;101191.25;4965166;28;19922;-82
2023/04/02 00:54:19;;;;;;;;;;;;;;;19.97;42.53;101274.28;4969763;28;19979;-83
2023/04/02 00:56:45;;;;;;;;;;;;;;;19.96;42.48;101267.22;4974054;28;19910;-84
2023/04/02 00:59:37;;;;;;;;;;;;;;;19.95;42.46;101267.34;4966531;28;19957;-84
2023/04/02 01:02:12;;;;;;;;;;;;;;;19.94;42.71;101269.22;4959846;28;19915;-84
2023/04/02 01:04:37;;;;;;;;;;;;;;;19.92;42.55;101275.78;4973357;28;19914;-82
2023/04/02 01:07:06;;;;;;;;;;;;;;;19.90;42.63;101278.66;4969925;28;19911;-83
2023/04/02 01:09:43;;;;;;;;;;;;;;;19.90;42.75;101278.66;4967172;28;19914;-82
2023/04/02 01:12:35;;;;;;;;;;;;;;;19.87;42.58;101287.06;4969881;28;19911;-82
2023/04/02 01:15:06;;;;;;;;;;;;;;;19.86;42.52;101284.56;4958662;28;20364;-84
2023/04/02 01:17:38;;;;;;;;;;;;;;;19.85;42.69;101293.66;4977553;28;20054;-84
2023/04/02 01:20:21;;;;;;;;;;;;;;;19.83;42.56;101291.13;4960804;28;19911;-85
2023/04/02 01:22:47;;;;;;;;;;;;;;;19.82;42.82;101296.69;4974632;28;19918;-84
2023/04/02 01:25:21;;;;;;;;;;;;;;;19.81;42.55;101305.81;4966387;28;19917;-84
2023/04/02 01:27:50;;;;;;;;;;;;;;;19.80;42.75;101314.91;4950898;29;19934;-82
2023/04/02 01:30:17;;;;;;;;;;;;;;;19.79;42.56;101318.59;4968735;28;19910;-84
2023/04/02 01:32:42;;;;;;;;;;;;;;;19.75;42.54;101315.38;4973761;28;19918;-85
2023/04/02 01:35:07;;;;;;;;;;;;;;;19.76;42.91;101327.88;4967670;28;19910;-85
2023/04/02 01:37:33;;;;;;;;;;;;;;;19.75;42.67;101333.41;4973061;28;19990;-83
2023/04/02 01:40:17;;;;;;;;;;;;;;;19.73;42.60;101330.91;4973691;28;19911;-84
2023/04/02 01:42:57;;;;;;;;;;;;;;;19.72;42.63;101337.31;4964293;28;19921;-85
2023/04/02 01:45:22;;;;;;;;;;;;;;;19.70;42.58;101342.00;4967165;28;19939;-85
2023/04/02 01:47:50;;;;;;;;;;;;;;;19.68;42.93;101344.03;4961175;28;19910;-84
2023/04/02 01:50:15;;;;;;;;;;;;;;;19.67;42.62;101348.59;4968870;28;19914;-84
2023/04/02 01:52:41;;;;;;;;;;;;;;;19.66;42.69;101351.44;4962799;28;19918;-84
2023/04/02 01:55:07;;;;;;;;;;;;;;;19.65;42.81;101358.69;4961283;28;19910;-85
2023/04/02 01:57:32;;;;;;;;;;;;;;;19.63;42.55;101363.41;4971430;28;20425;-84
2023/04/02 01:59:59;;;;;;;;;;;;;;;19.62;42.68;101372.47;4971812;28;19915;-86
2023/04/02 02:02:24;;;;;;;;;;;;;;;19.62;42.67;101371.66;4959816;28;19938;-85
2023/04/02 02:04:49;;;;;;;;;;;;;;;19.60;42.72;101373.66;4973804;28;19977;-82
2023/04/02 02:07:15;;;;;;;;;;;;;;;19.59;42.79;101375.50;4969527;28;19985;-85
2023/04/02 02:09:41;;;;;;;;;;;;;;;19.58;42.65;101384.59;4953264;28;20034;-81
2023/04/02 02:12:06;;;;;;;;;;;;;;;19.55;42.63;101390.31;4976778;28;19916;-82
2023/04/02 02:14:31;;;;;;;;;;;;;;;19.55;42.83;101395.72;4970872;28;19917;-83
2023/04/02 02:16:58;;;;;;;;;;;;;;;19.53;42.88;101395.00;4971589;28;19922;-85
2023/04/02 02:19:35;;;;;;;;;;;;;;;19.53;42.73;101399.56;4963875;28;19941;-86
2023/04/02 02:22:19;;;;;;;;;;;;;;;19.52;42.88;101405.97;4969695;28;19918;-85
2023/04/02 02:24:45;;;;;;;;;;;;;;;19.49;42.92;101407.97;4967037;28;19914;-84
2023/04/02 02:27:21;;;;;;;;;;;;;;;19.47;42.63;101415.38;4968878;28;20383;-85
2023/04/02 02:29:57;;;;;;;;;;;;;;;19.48;42.68;101427.00;4973756;28;19917;-81
2023/04/02 02:32:24;;;;;;;;;;;;;;;19.46;42.89;101426.34;4973520;28;19910;-85
2023/04/02 02:35:04;;;;;;;;;;;;;;;19.44;42.63;101429.19;4959598;28;20001;-83
2023/04/02 02:37:29;;;;;;;;;;;;;;;19.44;42.68;101434.56;4975295;28;19918;-85
2023/04/02 02:39:56;;;;;;;;;;;;;;;19.42;42.63;101435.75;4974345;28;19973;-85
2023/04/02 02:42:30;;;;;;;;;;;;;;;19.41;42.95;101443.00;4968357;28;19918;-85
2023/04/02 02:44:55;;;;;;;;;;;;;;;19.40;42.73;101453.94;4970702;28;19914;-84
2023/04/02 02:47:22;;;;;;;;;;;;;;;19.38;42.99;101454.09;4970035;28;19934;-84
2023/04/02 02:49:49;;;;;;;;;;;;;;;19.37;42.96;101460.50;4967358;28;19914;-84
2023/04/02 02:52:18;;;;;;;;;;;;;;;19.37;42.91;101459.63;4964629;28;19943;-84
2023/04/02 02:54:48;;;;;;;;;;;;;;;19.35;42.82;101462.50;4956137;28;19978;-85
2023/04/02 02:57:16;;;;;;;;;;;;;;;19.32;42.89;101468.19;4961484;28;19919;-83
2023/04/02 02:59:41;;;;;;;;;;;;;;;19.32;42.73;101470.88;4972686;28;19929;-83
2023/04/02 03:02:07;;;;;;;;;;;;;;;19.31;42.67;101488.06;4969501;28;19951;-84
2023/04/02 03:04:34;;;;;;;;;;;;;;;19.30;43.01;101486.38;4956118;28;19910;-83
2023/04/02 03:07:00;;;;;;;;;;;;;;;19.30;42.88;101485.56;4951587;28;19922;-85
2023/04/02 03:09:32;;;;;;;;;;;;;;;19.28;42.58;101493.78;4968029;28;19915;-85
2023/04/02 03:12:07;;;;;;;;;;;;;;;19.27;42.86;101496.63;4957250;28;19910;-85
2023/04/02 03:14:43;;;;;;;;;;;;;;;19.24;42.98;101503.19;4962127;28;20021;-84
2023/04/02 03:17:14;;;;;;;;;;;;;;;19.22;42.72;101511.44;4964597;28;19917;-84
2023/04/02 03:19:48;;;;;;;;;;;;;;;19.21;42.92;101512.44;4960348;28;19957;-83
2023/04/02 03:22:15;;;;;;;;;;;;;;;19.20;42.92;101521.53;4953443;28;19914;-84
2023/04/02 03:24:44;;;;;;;;;;;;;;;19.20;42.87;101526.09;4968264;28;19914;-80
2023/04/02 03:27:27;;;;;;;;;;;;;;;19.18;42.75;101531.63;4968418;28;19915;-85
2023/04/02 03:29:52;;;;;;;;;;;;;;;19.17;42.83;101547.97;4957224;28;20288;-85
2023/04/02 03:32:25;;;;;;;;;;;;;;;19.15;43.07;101552.63;4970330;28;20422;-85
2023/04/02 03:35:00;;;;;;;;;;;;;;;19.14;42.93;101548.25;4967711;28;19962;-85
2023/04/02 03:37:30;;;;;;;;;;;;;;;19.13;42.67;101562.75;4964508;28;19925;-85
2023/04/02 03:40:01;;;;;;;;;;;;;;;19.12;42.92;101561.06;4974252;28;19918;-86
2023/04/02 03:42:34;;;;;;;;;;;;;;;19.12;42.91;101571.84;4974462;28;19918;-85
2023/04/02 03:45:02;;;;;;;;;;;;;;;19.10;42.75;101576.53;4962957;28;20132;-85
2023/04/02 03:47:37;;;;;;;;;;;;;;;19.08;42.86;101579.38;4962991;28;20613;-85
2023/04/02 03:50:03;;;;;;;;;;;;;;;19.08;42.84;101586.63;4968517;28;19959;-86
2023/04/02 03:52:28;;;;;;;;;;;;;;;19.06;42.80;101591.31;4964891;28;19914;-86
2023/04/02 03:54:54;;;;;;;;;;;;;;;19.03;42.96;101586.22;4968752;28;19914;-85
2023/04/02 03:57:24;;;;;;;;;;;;;;;19.02;42.91;101596.16;4965079;28;19933;-84
2023/04/02 03:59:53;;;;;;;;;;;;;;;19.01;42.67;101599.84;4971702;28;19918;-84
2023/04/02 04:02:25;;;;;;;;;;;;;;;19.00;42.83;101614.31;4970787;28;20387;-84
2023/04/02 04:04:50;;;;;;;;;;;;;;;19.00;42.77;101616.19;4961423;28;19914;-85
2023/04/02 04:07:42;;;;;;;;;;;;;;;19.00;42.57;101618.88;4971489;28;20001;-85
2023/04/02 04:10:07;;;;;;;;;;;;;;;18.97;42.49;101628.09;4969420;28;19918;-85
2023/04/02 04:12:39;;;;;;;;;;;;;;;18.97;42.44;101638.88;4970807;28;19910;-84
2023/04/02 04:15:07;;;;;;;;;;;;;;;18.96;42.83;101646.13;4969205;28;19921;-86
2023/04/02 04:17:37;;;;;;;;;;;;;;;18.96;42.80;101648.81;4961816;28;19910;-85
2023/04/02 04:20:15;;;;;;;;;;;;;;;18.96;42.86;101651.50;4970589;28;19971;-85
2023/04/02 04:22:40;;;;;;;;;;;;;;;18.95;42.68;101657.91;4968189;28;19941;-85
2023/04/02 04:25:06;;;;;;;;;;;;;;;18.95;42.50;101666.00;4969500;28;20319;-85
2023/04/02 04:27:41;;;;;;;;;;;;;;;18.95;42.66;101675.94;4976743;28;19910;-85
2023/04/02 04:30:13;;;;;;;;;;;;;;;18.96;42.44;101683.00;4969294;28;19915;-82
2023/04/02 04:32:48;;;;;;;;;;;;;;;18.95;42.43;101679.47;4959841;29;19911;-80
2023/04/02 04:35:14;;;;;;;;;;;;;;;18.95;42.79;101679.47;4975839;28;19934;-83
2023/04/02 04:37:39;;;;;;;;;;;;;;;18.96;42.40;101693.78;4964731;28;19974;-81
2023/04/02 04:40:08;;;;;;;;;;;;;;;18.96;42.31;101691.94;4974750;28;19914;-83
2023/04/02 04:42:34;;;;;;;;;;;;;;;18.97;42.21;101700.84;4971413;28;19929;-83
2023/04/02 04:45:02;;;;;;;;;;;;;;;18.97;42.40;101695.47;4964985;28;19914;-78
2023/04/02 04:47:31;;;;;;;;;;;;;;;18.98;42.47;101706.09;4965798;28;19915;-79
2023/04/02 04:49:57;;;;;;;;;;;;;;;18.99;42.50;101704.28;4971707;28;19914;-79
2023/04/02 04:52:23;;;;;;;;;;;;;;;19.00;42.53;101715.91;4970465;28;19938;-77
2023/04/02 04:54:48;;;;;;;;;;;;;;;19.01;42.65;101720.28;4966387;28;19911;-78
2023/04/02 04:57:28;;;;;;;;;;;;;;;19.01;42.47;101717.59;4962930;28;19934;-79
2023/04/02 04:59:58;;;;;;;;;;;;;;;19.04;42.60;101730.78;4977897;28;19917;-79
2023/04/02 05:02:26;;;;;;;;;;;;;;;19.09;42.55;101741.94;4975253;28;19921;-78
2023/04/02 05:04:51;;;;;;;;;;;;;;;19.11;42.85;101742.63;4960509;28;19910;-77
2023/04/02 05:07:39;;;;;;;;;;;;;;;19.13;42.70;101757.66;4972531;28;20419;-77
2023/04/02 05:10:11;;;;;;;;;;;;;;;19.16;43.07;101761.94;4961502;28;19918;-77
2023/04/02 05:12:37;;;;;;;;;;;;;;;19.18;43.01;101770.69;4967833;28;20390;-76
2023/04/02 05:15:02;;;;;;;;;;;;;;;19.21;42.95;101773.09;4968506;28;19915;-77
2023/04/02 05:17:38;;;;;;;;;;;;;;;19.22;42.74;101781.03;4970024;28;19917;-80
2023/04/02 05:20:08;;;;;;;;;;;;;;;19.23;43.07;101787.25;4968660;28;19910;-79
2023/04/02 05:22:35;;;;;;;;;;;;;;;19.27;42.91;101790.50;4964674;28;19915;-77
2023/04/02 05:25:06;;;;;;;;;;;;;;;19.29;42.97;101800.16;4968681;28;19915;-80
2023/04/02 05:27:31;;;;;;;;;;;;;;;19.31;42.80;101818.88;4977814;28;19915;-79
2023/04/02 05:30:02;;;;;;;;;;;;;;;19.32;42.90;101821.41;4967687;28;20168;-76
2023/04/02 05:32:29;;;;;;;;;;;;;;;19.34;43.06;101830.22;4966052;28;19926;-73
2023/04/02 05:34:54;;;;;;;;;;;;;;;19.35;42.81;101845.41;4975129;28;19917;-74
2023/04/02 05:37:20;;;;;;;;;;;;;;;19.37;42.53;101843.41;4966524;28;19926;-81
2023/04/02 05:39:45;;;;;;;;;;;;;;;19.39;42.61;101854.03;4964069;28;19917;-81
2023/04/02 05:42:19;;;;;;;;;;;;;;;19.40;42.60;101851.19;4970351;28;19915;-80
2023/04/02 05:44:53;;;;;;;;;;;;;;;19.43;42.75;101861.69;4970998;28;19914;-81
2023/04/02 05:47:20;;;;;;;;;;;;;;;19.43;42.71;101866.22;4968153;28;20008;-79
2023/04/02 05:49:48;;;;;;;;;;;;;;;19.44;42.76;101876.84;4972015;28;19933;-79
2023/04/02 05:52:19;;;;;;;;;;;;;;;19.45;42.92;101878.59;4958311;28;20647;-77
2023/04/02 05:54:44;;;;;;;;;;;;;;;19.47;42.46;101887.34;4974312;28;19973;-77
2023/04/02 05:57:11;;;;;;;;;;;;;;;19.49;42.79;101896.13;4967165;28;19921;-77
2023/04/02 05:59:37;;;;;;;;;;;;;;;19.51;42.51;101896.00;4970957;28;19990;-77
2023/04/02 06:02:06;;;;;;;;;;;;;;;19.53;42.58;101895.84;4976644;28;19922;-80
2023/04/02 06:04:38;;;;;;;;;;;;;;;19.54;42.70;101897.53;4951751;28;19942;-78
2023/04/02 06:07:05;;;;;;;;;;;;;;;19.56;42.57;101907.19;4966947;28;19921;-78
2023/04/02 06:09:38;;;;;;;;;;;;;;;19.57;42.70;101916.13;4976250;28;20006;-78
2023/04/02 06:12:10;;;;;;;;;;;;;;;19.59;42.39;101919.56;4970994;28;20393;-78
2023/04/02 06:14:36;;;;;;;;;;;;;;;19.60;42.52;101923.94;4969238;28;19910;-76
2023/04/02 06:17:01;;;;;;;;;;;;;;;19.62;42.28;101930.06;4973670;28;19929;-76
2023/04/02 06:19:27;;;;;;;;;;;;;;;19.62;42.26;101935.44;4967571;28;20339;-76
2023/04/02 06:21:57;;;;;;;;;;;;;;;19.63;42.34;101938.03;4973523;28;19914;-76
2023/04/02 06:24:23;;;;;;;;;;;;;;;19.64;42.05;101937.00;4948923;28;19918;-79
2023/04/02 06:26:50;;;;;;;;;;;;;;;19.66;41.93;101948.50;4961464;28;19911;-79
2023/04/02 06:29:20;;;;;;;;;;;;;;;19.68;42.35;101951.06;4973825;28;19922;-81
2023/04/02 06:31:46;;;;;;;;;;;;;;;19.70;41.95;101952.59;4962039;28;19914;-81
2023/04/02 06:34:16;;;;;;;;;;;;;;;19.70;42.23;101955.28;4969510;28;19918;-80
2023/04/02 06:36:41;;;;;;;;;;;;;;;19.72;41.77;101957.88;4968001;28;19918;-74
2023/04/02 06:39:07;;;;;;;;;;;;;;;19.72;41.67;101964.09;4969529;28;19957;-82
2023/04/02 06:41:33;;;;;;;;;;;;;;;19.73;41.72;101963.09;4968929;28;20004;-78
2023/04/02 06:44:03;;;;;;;;;;;;;;;19.73;41.65;101971.19;4970034;28;20547;-81
2023/04/02 06:46:47;;;;;;;;;;;;;;;19.77;41.82;101976.31;4965781;28;19914;-83
2023/04/02 06:49:23;;;;;;;;;;;;;;;19.78;41.73;101986.94;4955499;28;19918;-78
2023/04/02 06:51:48;;;;;;;;;;;;;;;19.79;41.43;101995.88;4967568;28;19915;-81
2023/04/02 06:54:14;;;;;;;;;;;;;;;19.80;41.22;102001.16;4956216;28;20457;-82
2023/04/02 06:56:40;;;;;;;;;;;;;;;19.81;41.38;102005.53;4967057;28;19921;-83
2023/04/02 06:59:06;;;;;;;;;;;;;;;19.82;41.17;102009.94;4958985;28;19914;-82
2023/04/02 07:01:32;;;;;;;;;;;;;;;19.82;41.36;102015.34;4966359;28;20012;-82
2023/04/02 07:03:58;;;;;;;;;;;;;;;19.83;41.32;102017.03;4947122;28;19914;-82
2023/04/02 07:06:23;;;;;;;;;;;;;;;19.85;41.25;102025.84;4966597;28;19914;-81
2023/04/02 07:08:48;;;;;;;;;;;;;;;19.85;41.20;102033.94;4969701;28;19914;-79
2023/04/02 07:11:15;;;;;;;;;;;;;;;19.86;41.25;102038.31;4978628;28;19968;-78
2023/04/02 07:13:41;;;;;;;;;;;;;;;19.88;41.16;102052.53;4955686;28;19918;-82
2023/04/02 07:16:07;;;;;;;;;;;;;;;19.89;41.24;102051.53;4970405;28;19924;-80
2023/04/02 07:18:32;;;;;;;;;;;;;;;19.90;41.05;102060.47;4972049;28;20331;-80
2023/04/02 07:20:58;;;;;;;;;;;;;;;19.91;40.85;102057.63;4953656;28;19915;-80
2023/04/02 07:23:23;;;;;;;;;;;;;;;19.92;41.02;102062.06;4957227;28;20667;-81
2023/04/02 07:25:49;;;;;;;;;;;;;;;19.93;40.60;102071.00;4968290;28;19936;-82
2023/04/02 07:28:14;;;;;;;;;;;;;;;19.94;40.85;102073.53;4966060;28;19924;-82
2023/04/02 07:30:40;;;;;;;;;;;;;;;19.96;40.87;102078.78;4966240;28;20010;-84
2023/04/02 07:33:05;;;;;;;;;;;;;;;19.94;40.53;102078.94;4966155;28;19915;-86
2023/04/02 07:35:30;;;;;;;;;;;;;;;19.96;40.68;102086.88;4967324;28;19914;-82
2023/04/02 07:37:56;;;;;;;;;;;;;;;19.97;40.72;102096.69;4965955;28;20076;-86
2023/04/02 07:40:22;;;;;;;;;;;;;;;19.98;40.56;102101.94;4966237;28;19933;-82
2023/04/02 07:42:48;;;;;;;;;;;;;;;19.99;40.61;102105.47;4963917;28;19973;-80
2023/04/02 07:45:13;;;;;;;;;;;;;;;20.01;40.67;102114.31;4962690;28;19922;-86
2023/04/02 07:47:39;;;;;;;;;;;;;;;20.02;40.44;102115.16;4958098;28;19918;-84
2023/04/02 07:50:04;;;;;;;;;;;;;;;20.04;40.63;102113.13;4970026;28;19950;-81
2023/04/02 07:52:30;;;;;;;;;;;;;;;20.05;40.58;102118.41;4967155;28;19918;-82
2023/04/02 07:54:55;;;;;;;;;;;;;;;20.08;40.18;102128.06;4972693;28;19918;-74
2023/04/02 07:57:20;;;;;;;;;;;;;;;20.09;40.52;102124.34;4969158;28;19933;-76
2023/04/02 07:59:46;;;;;;;;;;;;;;;20.10;40.58;102117.97;4970203;28;19924;-75
2023/04/02 08:02:17;;;;;;;;;;;;;;;20.13;40.30;102125.75;4956198;28;19925;-75
2023/04/02 08:04:43;;;;;;;;;;;;;;;20.15;40.55;102131.88;4949418;29;19910;-75
2023/04/02 08:07:08;;;;;;;;;;;;;;;20.18;40.29;102134.28;4972754;28;19910;-72
2023/04/02 08:09:33;;;;;;;;;;;;;;;20.18;40.50;102137.84;4961800;28;19924;-77
2023/04/02 08:11:58;;;;;;;;;;;;;;;20.20;40.44;102141.22;4963981;28;19918;-78
2023/04/02 08:14:23;;;;;;;;;;;;;;;20.23;40.29;102140.94;4960418;28;19962;-74
2023/04/02 08:16:50;;;;;;;;;;;;;;;20.27;40.29;102151.47;4973829;28;20034;-75
2023/04/02 08:19:15;;;;;;;;;;;;;;;20.29;40.15;102146.75;4965650;28;19915;-74
2023/04/02 08:21:40;;;;;;;;;;;;;;;20.32;40.17;102149.16;4967739;28;20686;-73
2023/04/02 08:24:06;;;;;;;;;;;;;;;20.34;40.08;102156.09;4973539;28;20002;-73
2023/04/02 08:26:31;;;;;;;;;;;;;;;20.37;40.11;102165.75;4967412;28;19918;-73
2023/04/02 08:28:56;;;;;;;;;;;;;;;20.39;39.99;102167.34;4968838;28;19935;-75
2023/04/02 08:31:22;;;;;;;;;;;;;;;20.41;40.17;102169.88;4972541;28;19918;-75
2023/04/02 08:33:47;;;;;;;;;;;;;;;20.43;40.36;102179.53;4970041;28;19915;-73
2023/04/02 08:36:16;;;;;;;;;;;;;;;20.45;40.00;102182.94;4967548;28;19960;-75
2023/04/02 08:38:41;;;;;;;;;;;;;;;20.48;40.00;102184.53;4959898;28;19977;-73
2023/04/02 08:41:06;;;;;;;;;;;;;;;20.51;40.24;102186.06;4964493;28;19914;-74
2023/04/02 08:43:37;;;;;;;;;;;;;;;20.53;39.94;102200.28;4970699;28;19945;-74
2023/04/02 08:46:23;;;;;;;;;;;;;;;20.55;39.63;102193.72;4965032;28;19910;-72
2023/04/02 08:48:50;;;;;;;;;;;;;;;20.57;39.83;102194.44;4968697;28;19926;-73
2023/04/02 08:51:21;;;;;;;;;;;;;;;20.59;39.94;102205.94;4976877;28;19911;-75
2023/04/02 08:53:46;;;;;;;;;;;;;;;20.62;39.62;102211.06;4970025;28;20352;-74
2023/04/02 08:56:18;;;;;;;;;;;;;;;20.61;39.89;102212.06;4968911;28;19918;-75
2023/04/02 08:58:54;;;;;;;;;;;;;;;20.64;39.62;102227.97;4970934;28;19910;-74
2023/04/02 09:01:31;;;;;;;;;;;;;;;20.66;39.85;102222.44;4968600;28;19915;-74
2023/04/02 09:03:57;;;;;;;;;;;;;;;20.69;39.54;102224.84;4976652;28;19917;-73
2023/04/02 09:06:22;;;;;;;;;;;;;;;20.69;39.50;102231.09;4972077;28;20538;-74
2023/04/02 09:08:48;;;;;;;;;;;;;;;20.71;39.63;102247.16;4969008;28;19950;-73
2023/04/02 09:11:23;;;;;;;;;;;;;;;20.72;39.22;102249.69;4968768;28;19918;-76
2023/04/02 09:13:51;;;;;;;;;;;;;;;20.75;39.45;102247.72;4968030;28;20013;-82
2023/04/02 09:16:20;;;;;;;;;;;;;;;20.76;39.16;102252.97;4969225;28;19915;-84
2023/04/02 09:18:46;;;;;;;;;;;;;;;20.77;39.42;102249.25;4968295;28;19925;-80
2023/04/02 09:21:20;;;;;;;;;;;;;;;20.79;39.38;102249.97;4974946;28;19918;-74
2023/04/02 09:23:46;;;;;;;;;;;;;;;20.81;39.40;102260.63;4965898;28;19930;-79
2023/04/02 09:26:21;;;;;;;;;;;;;;;20.83;39.44;102259.47;4964811;28;19914;-76
2023/04/02 09:28:47;;;;;;;;;;;;;;;20.84;39.18;102265.75;4968143;28;19923;-74
2023/04/02 09:31:18;;;;;;;;;;;;;;;20.86;39.14;102275.41;4966796;28;19911;-77
2023/04/02 09:33:47;;;;;;;;;;;;;;;20.88;39.04;102280.66;4952369;28;20045;-74
2023/04/02 09:36:17;;;;;;;;;;;;;;;20.89;39.18;102285.91;4961975;28;20006;-74
2023/04/02 09:38:55;;;;;;;;;;;;;;;20.90;39.16;102284.09;4970022;28;19915;-74
2023/04/02 09:41:21;;;;;;;;;;;;;;;20.93;39.14;102283.75;4962653;28;19914;-74
2023/04/02 09:43:46;;;;;;;;;;;;;;;20.96;38.87;102284.31;4981354;28;19922;-75
2023/04/02 09:46:11;;;;;;;;;;;;;;;20.98;38.85;102278.75;4961909;28;19914;-75
2023/04/02 09:48:40;;;;;;;;;;;;;;;21.00;38.89;102281.34;4959830;28;19919;-75
2023/04/02 09:51:08;;;;;;;;;;;;;;;21.04;38.85;102280.03;4972009;28;20478;-77
2023/04/02 09:53:56;;;;;;;;;;;;;;;21.06;38.95;102289.69;4968355;28;20306;-76
2023/04/02 09:56:22;;;;;;;;;;;;;;;21.11;38.72;102283.81;4968007;28;19921;-76
2023/04/02 09:59:09;;;;;;;;;;;;;;;21.15;38.79;102287.94;4959508;29;19983;-77
2023/04/02 10:01:36;;;;;;;;;;;;;;;21.19;38.81;102294.75;4969272;28;19914;-76
2023/04/02 10:04:02;;;;;;;;;;;;;;;21.20;39.02;102304.59;4960282;28;20371;-78
2023/04/02 10:06:27;;;;;;;;;;;;;;;21.23;39.01;102302.41;4964853;28;19918;-79
2023/04/02 10:08:52;;;;;;;;;;;;;;;21.27;38.89;102302.13;4945929;28;19914;-77
2023/04/02 10:11:18;;;;;;;;;;;;;;;21.31;38.86;102306.22;4959278;28;19921;-75
2023/04/02 10:13:47;;;;;;;;;;;;;;;21.35;38.84;102316.63;4971494;28;19960;-79
2023/04/02 10:16:16;;;;;;;;;;;;;;;21.39;39.06;102325.28;4958108;28;19925;-73
2023/04/02 10:18:48;;;;;;;;;;;;;;;21.43;38.94;102329.41;4959057;29;20839;-73
2023/04/02 10:21:18;;;;;;;;;;;;;;;21.46;39.01;102326.41;4961908;28;20383;-79
2023/04/02 10:23:43;;;;;;;;;;;;;;;21.49;38.91;102326.06;4965804;28;20049;-76
2023/04/02 10:26:14;;;;;;;;;;;;;;;21.53;38.83;102334.75;4971555;28;19918;-77
2023/04/02 10:28:58;;;;;;;;;;;;;;;21.57;38.76;102331.59;4966172;28;19925;-78
2023/04/02 10:31:40;;;;;;;;;;;;;;;21.62;38.61;102332.00;4963379;28;19918;-78
2023/04/02 10:34:09;;;;;;;;;;;;;;;21.67;38.99;102336.97;4970784;28;19914;-76
2023/04/02 10:36:42;;;;;;;;;;;;;;;21.70;38.66;102336.63;4962685;28;19934;-77
2023/04/02 10:39:12;;;;;;;;;;;;;;;21.76;38.79;102340.59;4970100;28;19953;-79
2023/04/02 10:41:58;;;;;;;;;;;;;;;21.84;38.66;102340.69;4964259;28;19914;-73
2023/04/02 10:44:36;;;;;;;;;;;;;;;21.94;38.45;102346.88;4960925;28;19919;-73
2023/04/02 10:47:13;;;;;;;;;;;;;;;22.03;38.48;102350.53;4972258;28;19918;-75
2023/04/02 10:49:51;;;;;;;;;;;;;;;22.07;38.15;102365.47;4952841;28;19925;-75
2023/04/02 10:52:16;;;;;;;;;;;;;;;22.10;37.77;102360.59;4953662;29;19914;-74
2023/04/02 10:54:44;;;;;;;;;;;;;;;22.14;37.69;102362.00;4957009;28;19925;-74
2023/04/02 10:57:17;;;;;;;;;;;;;;;22.17;37.31;102364.41;4964525;28;19915;-74
2023/04/02 10:59:43;;;;;;;;;;;;;;;22.20;37.53;102369.50;4964390;28;19918;-74
2023/04/02 11:02:32;;;;;;;;;;;;;;;22.24;37.32;102371.91;4962958;28;19945;-74
2023/04/02 11:04:57;;;;;;;;;;;;;;;22.26;37.37;102376.19;4955812;28;19992;-74
2023/04/02 11:07:23;;;;;;;;;;;;;;;22.28;37.27;102382.28;4966829;28;19985;-74
2023/04/02 11:09:50;;;;;;;;;;;;;;;22.31;37.42;102381.97;4968179;28;19938;-74
2023/04/02 11:12:20;;;;;;;;;;;;;;;22.37;37.09;102384.06;4964525;28;19914;-73
2023/04/02 11:14:46;;;;;;;;;;;;;;;22.39;37.34;102384.78;4957418;28;19914;-74
2023/04/02 11:17:12;;;;;;;;;;;;;;;22.42;37.21;102397.13;4965888;28;19941;-74
2023/04/02 11:19:37;;;;;;;;;;;;;;;22.46;37.16;102399.38;4960414;28;19914;-73
2023/04/02 11:22:03;;;;;;;;;;;;;;;22.49;37.06;102402.78;4974710;28;19970;-73
2023/04/02 11:24:32;;;;;;;;;;;;;;;22.53;37.00;102396.06;4967827;28;19914;-74
2023/04/02 11:27:06;;;;;;;;;;;;;;;22.57;36.87;102405.59;4968729;28;19914;-73
2023/04/02 11:29:31;;;;;;;;;;;;;;;22.64;37.02;102403.91;4969730;28;19918;-73
2023/04/02 11:32:15;;;;;;;;;;;;;;;22.63;36.80;102407.66;4941864;28;19957;-73
2023/04/02 11:34:41;;;;;;;;;;;;;;;22.66;36.67;102405.47;4971784;28;19985;-73
2023/04/02 11:37:08;;;;;;;;;;;;;;;22.68;36.86;102410.72;4960724;28;19926;-72
2023/04/02 11:39:44;;;;;;;;;;;;;;;22.70;36.85;102411.44;4967673;28;20048;-72
2023/04/02 11:42:22;;;;;;;;;;;;;;;22.73;36.86;102421.13;4969100;28;19922;-72
2023/04/02 11:44:47;;;;;;;;;;;;;;;22.73;36.64;102413.84;4959454;28;19915;-72
2023/04/02 11:47:15;;;;;;;;;;;;;;;22.75;36.88;102406.41;4970613;28;19924;-71
2023/04/02 11:50:03;;;;;;;;;;;;;;;22.75;37.00;102408.25;4956242;28;19969;-72
2023/04/02 11:52:30;;;;;;;;;;;;;;;22.77;36.92;102417.06;4966599;28;19954;-72
2023/04/02 11:54:56;;;;;;;;;;;;;;;22.78;36.96;102408.78;4959377;28;19922;-74
2023/04/02 11:57:29;;;;;;;;;;;;;;;22.79;37.03;102412.34;4966024;28;20025;-73
2023/04/02 12:00:18;;;;;;;;;;;;;;;22.79;37.05;102412.34;4970766;28;19918;-73
2023/04/02 12:02:43;;;;;;;;;;;;;;;22.79;36.93;102410.50;4962883;28;19926;-72
2023/04/02 12:05:30;;;;;;;;;;;;;;;22.79;37.08;102418.63;4957205;28;19924;-72
2023/04/02 12:08:26;;;;;;;;;;;;;;;22.80;37.11;102408.63;4969235;28;19922;-73
2023/04/02 12:10:51;;;;;;;;;;;;;;;22.81;37.11;102432.91;4952937;28;19934;-73
2023/04/02 12:13:20;;;;;;;;;;;;;;;22.81;37.32;102424.75;4964732;28;19914;-73
2023/04/02 12:15:45;;;;;;;;;;;;;;;22.83;36.98;102421.88;4968174;28;19914;-73
2023/04/02 12:18:21;;;;;;;;;;;;;;;22.82;37.35;102431.88;4962857;28;20634;-73
2023/04/02 12:20:47;;;;;;;;;;;;;;;22.84;37.27;102437.97;4969732;28;19921;-73
2023/04/02 12:23:17;;;;;;;;;;;;;;;22.85;37.40;102434.28;4967396;28;19925;-72
2023/04/02 12:25:42;;;;;;;;;;;;;;;22.87;37.47;102439.53;4964143;28;19921;-73
2023/04/02 12:28:13;;;;;;;;;;;;;;;22.88;37.10;102443.94;4966909;28;19914;-73
2023/04/02 12:30:38;;;;;;;;;;;;;;;22.89;37.37;102437.50;4965449;28;19914;-73
2023/04/02 12:33:36;;;;;;;;;;;;;;;22.88;37.22;102455.66;4955955;28;19977;-73
2023/04/02 12:36:08;;;;;;;;;;;;;;;22.89;37.43;102451.91;4948748;28;20426;-73
2023/04/02 12:38:36;;;;;;;;;;;;;;;22.90;37.29;102453.69;4971747;28;19918;-73
2023/04/02 12:41:05;;;;;;;;;;;;;;;22.92;36.98;102451.63;4958533;28;19922;-73
2023/04/02 12:43:31;;;;;;;;;;;;;;;22.92;36.93;102461.63;4960911;28;20016;-74
2023/04/02 12:45:58;;;;;;;;;;;;;;;22.91;37.18;102466.22;4966452;28;19925;-74
2023/04/02 12:48:23;;;;;;;;;;;;;;;22.93;37.23;102458.75;4971772;28;19984;-74